createdAt,value
2018-07-16T00:00:03.713Z,62.99
2018-07-16T00:02:32.146Z,62.30
2018-07-16T00:05:00.465Z,62.41
2018-07-16T00:07:29.112Z,62.48
2018-07-16T00:09:57.416Z,63.00
2018-07-16T00:12:25.732Z,62.90
2018-07-16T00:14:54.049Z,62.54
2018-07-16T00:17:22.622Z,63.00
2018-07-16T00:19:50.940Z,63.39
2018-07-16T00:22:19.289Z,63.39
2018-07-16T00:24:47.549Z,63.19
2018-07-16T00:27:16.139Z,64.10
2018-07-16T00:29:45.498Z,64.59
2018-07-16T00:32:13.861Z,64.46
2018-07-16T00:34:42.124Z,64.38
2018-07-16T00:37:10.490Z,64.49
2018-07-16T00:39:38.767Z,64.92
2018-07-16T00:42:07.121Z,64.56
2018-07-16T00:44:35.417Z,64.75
2018-07-16T00:47:03.701Z,65.00
2018-07-16T00:49:32.005Z,64.86
2018-07-16T00:52:00.273Z,64.73
2018-07-16T00:54:28.572Z,65.20
2018-07-16T00:56:56.897Z,64.61
2018-07-16T00:59:25.215Z,65.18
2018-07-16T01:01:53.674Z,64.15
2018-07-16T01:04:21.994Z,64.27
2018-07-16T01:06:51.393Z,65.31
2018-07-16T01:09:19.722Z,65.16
2018-07-16T01:11:48.009Z,65.46
2018-07-16T01:14:16.337Z,66.03
2018-07-16T01:16:44.613Z,65.35
2018-07-16T01:19:12.921Z,66.23
2018-07-16T01:21:41.198Z,66.37
2018-07-16T01:24:09.505Z,67.45
2018-07-16T01:26:37.801Z,67.44
2018-07-16T01:29:06.257Z,67.60
2018-07-16T01:31:34.553Z,67.96
2018-07-16T01:34:02.925Z,67.87
2018-07-16T01:36:31.241Z,67.60
2018-07-16T01:38:59.545Z,67.97
2018-07-16T01:41:27.825Z,67.90
2018-07-16T01:43:56.094Z,68.50
2018-07-16T01:46:24.538Z,68.44
2018-07-16T01:48:52.849Z,68.68
2018-07-16T01:51:21.168Z,68.32
2018-07-16T01:53:49.449Z,68.66
2018-07-16T01:56:17.765Z,68.44
2018-07-16T01:58:46.185Z,68.62
2018-07-16T02:01:14.517Z,69.48
2018-07-16T02:03:42.781Z,69.10
2018-07-16T02:06:11.099Z,69.43
2018-07-16T02:08:39.362Z,68.88
2018-07-16T02:11:07.673Z,69.55
2018-07-16T02:13:35.949Z,69.12
2018-07-16T02:16:04.381Z,69.20
2018-07-16T02:18:32.645Z,69.90
2018-07-16T02:21:00.953Z,69.76
2018-07-16T02:23:29.228Z,70.25
2018-07-16T02:25:58.565Z,70.14
2018-07-16T02:28:26.829Z,70.02
2018-07-16T02:30:55.125Z,69.85
2018-07-16T02:33:23.413Z,69.73
2018-07-16T02:35:51.710Z,70.35
2018-07-16T02:38:20.010Z,70.82
2018-07-16T02:40:48.301Z,70.68
2018-07-16T02:43:16.683Z,71.00
2018-07-16T02:45:44.957Z,71.08
2018-07-16T02:48:13.249Z,71.08
2018-07-16T02:50:41.513Z,71.38
2018-07-16T02:53:09.833Z,71.04
2018-07-16T02:55:38.130Z,71.16
2018-07-16T02:58:06.762Z,71.07
2018-07-16T03:00:35.133Z,71.00
2018-07-16T03:03:03.437Z,71.11
2018-07-16T03:05:31.701Z,71.17
2018-07-16T03:08:00.030Z,70.62
2018-07-16T03:10:29.341Z,71.38
2018-07-16T03:12:57.649Z,71.48
2018-07-16T03:15:25.917Z,71.23
2018-07-16T03:17:54.279Z,71.21
2018-07-16T03:20:22.561Z,71.01
2018-07-16T03:22:50.891Z,71.26
2018-07-16T03:25:19.207Z,71.18
2018-07-16T03:27:47.473Z,71.22
2018-07-16T03:30:15.875Z,71.07
2018-07-16T03:32:45.000Z,71.14
2018-07-16T03:35:13.445Z,71.01
2018-07-16T03:37:42.768Z,70.62
2018-07-16T03:40:11.077Z,70.34
2018-07-16T03:42:39.349Z,70.76
2018-07-16T03:45:07.655Z,70.45
2018-07-16T03:47:36.961Z,70.29
2018-07-16T03:50:05.263Z,69.88
2018-07-16T03:52:33.717Z,69.40
2018-07-16T03:55:02.033Z,68.67
2018-07-16T03:57:30.305Z,69.49
2018-07-16T03:59:58.617Z,68.76
2018-07-16T04:02:26.885Z,68.10
2018-07-16T04:04:55.201Z,68.68
2018-07-16T04:07:23.488Z,68.60
2018-07-16T04:09:51.748Z,67.89
2018-07-16T04:12:20.140Z,67.79
2018-07-16T04:14:48.417Z,66.15
2018-07-16T04:17:16.713Z,66.65
2018-07-16T04:19:44.973Z,66.20
2018-07-16T04:22:13.268Z,66.51
2018-07-16T04:24:41.588Z,65.99
2018-07-16T04:27:09.905Z,65.71
2018-07-16T04:29:38.201Z,65.95
2018-07-16T04:32:06.493Z,66.48
2018-07-16T04:34:35.857Z,65.53
2018-07-16T04:37:04.141Z,65.69
2018-07-16T04:39:32.396Z,64.92
2018-07-16T04:42:00.833Z,65.32
2018-07-16T04:44:29.321Z,64.58
2018-07-16T04:46:57.609Z,64.02
2018-07-16T04:49:25.873Z,64.40
2018-07-16T04:51:54.169Z,63.91
2018-07-16T04:54:22.458Z,64.09
2018-07-16T04:56:50.753Z,64.09
2018-07-16T04:59:19.073Z,64.93
2018-07-16T05:01:47.393Z,64.74
2018-07-16T05:04:15.698Z,62.30
2018-07-16T05:06:43.969Z,62.25
2018-07-16T05:09:12.259Z,61.75
2018-07-16T05:11:40.529Z,62.15
2018-07-16T05:14:08.825Z,63.55
2018-07-16T05:16:37.105Z,63.03
2018-07-16T05:19:05.418Z,63.37
2018-07-16T05:21:33.786Z,64.07
2018-07-16T05:24:02.107Z,64.02
2018-07-16T05:26:30.362Z,63.87
2018-07-16T05:28:58.853Z,63.50
2018-07-16T05:31:27.177Z,63.53
2018-07-16T05:33:55.661Z,64.38
2018-07-16T05:36:24.107Z,64.86
2018-07-16T05:38:52.413Z,64.20
2018-07-16T05:41:20.677Z,64.70
2018-07-16T05:43:48.977Z,64.45
2018-07-16T05:46:17.313Z,64.35
2018-07-16T05:48:45.629Z,63.69
2018-07-16T05:51:13.920Z,63.11
2018-07-16T05:53:42.246Z,62.30
2018-07-16T05:56:10.586Z,61.96
2018-07-16T05:58:38.848Z,61.55
2018-07-16T06:01:07.261Z,60.89
2018-07-16T06:03:35.529Z,60.74
2018-07-16T06:06:03.817Z,60.79
2018-07-16T06:08:33.513Z,60.87
2018-07-16T06:11:01.805Z,60.12
2018-07-16T06:13:31.077Z,61.04
2018-07-16T06:15:59.364Z,60.58
2018-07-16T06:18:27.612Z,60.01
2018-07-16T06:20:55.893Z,60.01
2018-07-16T06:23:24.191Z,59.62
2018-07-16T06:25:52.463Z,58.78
2018-07-16T06:28:20.741Z,58.65
2018-07-16T06:30:49.043Z,58.98
2018-07-16T06:33:17.472Z,58.46
2018-07-16T06:35:45.761Z,57.80
2018-07-16T06:38:14.026Z,58.02
2018-07-16T06:40:42.586Z,57.13
2018-07-16T06:43:10.665Z,58.97
2018-07-16T06:45:38.933Z,57.08
2018-07-16T06:48:07.247Z,56.90
2018-07-16T06:50:35.522Z,56.97
2018-07-16T06:53:03.969Z,55.92
2018-07-16T06:55:32.234Z,54.18
2018-07-16T06:58:00.505Z,52.88
2018-07-16T07:00:28.980Z,52.60
2018-07-16T07:02:57.245Z,52.86
2018-07-16T07:08:57.329Z,51.36
2018-07-16T07:11:25.585Z,50.75
2018-07-16T07:13:53.885Z,49.51
2018-07-16T07:16:22.191Z,48.50
2018-07-16T07:18:50.465Z,47.71
2018-07-16T07:21:18.742Z,46.18
2018-07-16T07:23:47.139Z,47.24
2018-07-16T07:26:15.421Z,47.75
2018-07-16T07:28:43.679Z,46.91
2018-07-16T07:31:11.990Z,46.01
2018-07-16T07:33:40.269Z,44.64
2018-07-16T07:36:08.564Z,45.79
2018-07-16T07:38:36.829Z,46.25
2018-07-16T07:41:05.156Z,45.20
2018-07-16T07:43:33.413Z,44.90
2018-07-16T07:46:01.709Z,43.84
2018-07-16T07:48:29.971Z,43.22
2018-07-16T07:50:58.316Z,43.92
2018-07-16T07:53:26.630Z,43.78
2018-07-16T07:55:54.919Z,43.91
2018-07-16T07:58:23.177Z,43.26
2018-07-16T08:00:51.553Z,41.83
2018-07-16T08:03:19.875Z,41.91
2018-07-16T08:05:53.775Z,41.61
2018-07-16T08:08:22.060Z,39.65
2018-07-16T08:10:50.353Z,41.08
2018-07-16T08:13:18.685Z,41.20
2018-07-16T08:15:47.054Z,40.32
2018-07-16T08:18:15.389Z,41.01
2018-07-16T08:20:43.673Z,41.01
2018-07-16T08:23:11.969Z,41.85
2018-07-16T08:25:40.244Z,39.49
2018-07-16T08:28:08.649Z,39.30
2018-07-16T08:30:37.957Z,39.82
2018-07-16T08:33:07.332Z,40.38
2018-07-16T08:35:35.637Z,40.51
2018-07-16T08:38:04.101Z,39.92
2018-07-16T08:40:32.426Z,40.35
2018-07-16T08:43:00.754Z,39.84
2018-07-16T08:45:29.078Z,39.50
2018-07-16T08:47:57.371Z,38.71
2018-07-16T08:50:25.677Z,38.18
2018-07-16T08:52:54.064Z,39.88
2018-07-16T08:55:22.269Z,41.18
2018-07-16T08:57:51.290Z,40.44
2018-07-16T09:00:19.564Z,41.27
2018-07-16T09:02:47.901Z,39.99
2018-07-16T09:05:16.154Z,41.37
2018-07-16T09:07:44.417Z,41.18
2018-07-16T09:10:12.885Z,40.78
2018-07-16T09:12:41.173Z,40.34
2018-07-16T09:15:09.476Z,40.28
2018-07-16T09:17:37.749Z,40.94
2018-07-16T09:20:06.041Z,40.54
2018-07-16T09:22:34.308Z,41.07
2018-07-16T09:25:02.713Z,42.10
2018-07-16T09:27:31.986Z,42.40
2018-07-16T09:30:00.293Z,41.01
2018-07-16T09:32:29.569Z,42.34
2018-07-16T09:34:57.862Z,42.52
2018-07-16T09:37:26.157Z,43.36
2018-07-16T09:39:54.472Z,43.92
2018-07-16T09:42:22.750Z,43.10
2018-07-16T09:44:51.071Z,42.41
2018-07-16T09:47:19.422Z,41.81
2018-07-16T09:49:47.713Z,41.68
2018-07-16T09:52:15.985Z,42.96
2018-07-16T09:54:44.252Z,43.60
2018-07-16T09:57:12.560Z,43.38
2018-07-16T09:59:40.901Z,42.81
2018-07-16T10:02:15.224Z,43.10
2018-07-16T10:04:43.557Z,43.84
2018-07-16T10:07:12.201Z,43.90
2018-07-16T10:09:40.475Z,43.56
2018-07-16T10:12:09.127Z,44.74
2018-07-16T10:14:37.473Z,44.12
2018-07-16T10:17:06.041Z,43.77
2018-07-16T10:19:34.320Z,44.52
2018-07-16T10:22:02.609Z,44.68
2018-07-16T10:24:30.984Z,44.49
2018-07-16T10:26:59.270Z,44.08
2018-07-16T10:29:27.541Z,45.10
2018-07-16T10:31:55.857Z,43.75
2018-07-16T10:34:24.148Z,44.87
2018-07-16T10:36:53.501Z,44.01
2018-07-16T10:39:21.891Z,43.11
2018-07-16T10:41:50.170Z,42.86
2018-07-16T10:44:18.473Z,43.23
2018-07-16T10:46:46.730Z,43.92
2018-07-16T10:49:15.025Z,43.51
2018-07-16T10:51:43.325Z,43.13
2018-07-16T10:54:11.650Z,41.96
2018-07-16T10:56:39.969Z,43.59
2018-07-16T10:59:08.428Z,43.02
2018-07-16T11:01:36.737Z,44.27
2018-07-16T11:04:06.161Z,43.66
2018-07-16T11:06:34.509Z,43.45
2018-07-16T11:09:02.854Z,43.62
2018-07-16T11:11:31.125Z,42.45
2018-07-16T11:13:59.430Z,42.82
2018-07-16T11:16:27.698Z,43.36
2018-07-16T11:18:55.989Z,44.25
2018-07-16T11:21:24.289Z,42.85
2018-07-16T11:23:52.677Z,42.66
2018-07-16T11:26:20.945Z,41.94
2018-07-16T11:28:49.220Z,41.86
2018-07-16T11:31:17.489Z,40.88
2018-07-16T11:33:45.788Z,40.25
2018-07-16T11:36:14.052Z,39.49
2018-07-16T11:38:42.389Z,39.92
2018-07-16T11:41:10.661Z,39.18
2018-07-16T11:43:38.952Z,38.94
2018-07-16T11:46:08.276Z,39.15
2018-07-16T11:48:36.518Z,39.05
2018-07-16T11:51:04.844Z,39.28
2018-07-16T11:53:33.102Z,38.47
2018-07-16T11:56:01.410Z,36.78
2018-07-16T11:58:29.689Z,36.13
2018-07-16T12:00:57.992Z,37.90
2018-07-16T12:03:26.317Z,39.17
2018-07-16T12:05:54.606Z,38.80
2018-07-16T12:08:22.944Z,38.96
2018-07-16T12:10:52.309Z,39.37
2018-07-16T12:13:20.564Z,38.82
2018-07-16T12:15:48.852Z,40.24
2018-07-16T12:18:17.101Z,40.90
2018-07-16T12:20:45.390Z,41.48
2018-07-16T12:23:13.649Z,41.06
2018-07-16T12:25:41.949Z,40.64
2018-07-16T12:28:10.253Z,40.27
2018-07-16T12:30:38.473Z,40.85
2018-07-16T12:33:06.765Z,41.25
2018-07-16T12:35:35.122Z,42.24
2018-07-16T12:38:03.425Z,41.54
2018-07-16T12:40:31.669Z,41.46
2018-07-16T12:42:59.942Z,41.80
2018-07-16T12:45:28.212Z,41.22
2018-07-16T12:47:56.497Z,40.71
2018-07-16T12:50:24.742Z,42.27
2018-07-16T12:52:53.017Z,41.49
2018-07-16T12:55:21.325Z,39.42
2018-07-16T12:57:49.573Z,40.72
2018-07-16T13:00:17.891Z,41.41
2018-07-16T13:02:46.212Z,42.22
2018-07-16T13:05:14.469Z,41.48
2018-07-16T13:07:42.757Z,41.04
2018-07-16T13:10:11.013Z,40.68
2018-07-16T13:12:39.302Z,40.66
2018-07-16T13:15:07.565Z,40.72
2018-07-16T13:17:35.864Z,40.56
2018-07-16T13:20:04.154Z,40.79
2018-07-16T13:22:32.441Z,40.87
2018-07-16T13:25:00.741Z,40.34
2018-07-16T13:27:28.993Z,41.72
2018-07-16T13:29:57.439Z,41.30
2018-07-16T13:32:25.748Z,39.83
2018-07-16T13:34:54.093Z,40.06
2018-07-16T13:37:22.373Z,40.04
2018-07-16T13:39:50.650Z,40.29
2018-07-16T13:42:18.938Z,39.32
2018-07-16T13:44:47.238Z,39.98
2018-07-16T13:47:15.541Z,39.79
2018-07-16T13:49:43.825Z,38.71
2018-07-16T13:52:12.097Z,35.98
2018-07-16T13:54:40.387Z,33.15
2018-07-16T13:57:08.665Z,29.75
2018-07-16T13:59:37.226Z,26.02
2018-07-16T14:02:05.613Z,25.61
2018-07-16T14:04:33.861Z,25.85
2018-07-16T14:07:02.149Z,22.85
2018-07-16T14:09:30.449Z,20.72
2018-07-16T14:11:58.741Z,16.77
2018-07-16T14:14:27.413Z,14.93
2018-07-16T14:16:55.682Z,15.47
2018-07-16T14:19:23.992Z,14.53
2018-07-16T14:21:52.299Z,14.03
2018-07-16T14:24:20.654Z,13.27
2018-07-16T14:26:49.130Z,12.41
2018-07-16T14:29:17.413Z,12.63
2018-07-16T14:31:45.850Z,12.55
2018-07-16T14:34:14.145Z,13.43
2018-07-16T14:36:42.473Z,13.77
2018-07-16T14:39:10.778Z,12.89
2018-07-16T14:41:39.053Z,14.42
2018-07-16T14:44:07.433Z,13.66
2018-07-16T14:46:35.777Z,12.39
2018-07-16T14:49:04.069Z,12.58
2018-07-16T14:51:32.384Z,13.05
2018-07-16T14:54:00.645Z,13.22
2018-07-16T14:56:29.062Z,13.51
2018-07-16T14:58:57.393Z,13.27
2018-07-16T15:01:25.717Z,14.14
2018-07-16T15:03:53.992Z,13.45
2018-07-16T15:06:22.301Z,13.51
2018-07-16T15:08:50.601Z,12.81
2018-07-16T15:11:18.906Z,12.21
2018-07-16T15:13:47.219Z,13.58
2018-07-16T15:16:15.485Z,13.51
2018-07-16T15:18:43.798Z,13.71
2018-07-16T15:21:12.518Z,13.16
2018-07-16T15:23:40.428Z,12.65
2018-07-16T15:26:08.754Z,12.86
2018-07-16T15:28:37.029Z,14.45
2018-07-16T15:31:05.522Z,13.55
2018-07-16T15:33:33.837Z,15.67
2018-07-16T15:36:02.176Z,13.83
2018-07-16T15:38:30.528Z,13.39
2018-07-16T15:40:58.865Z,13.81
2018-07-16T15:43:27.151Z,13.52
2018-07-16T15:45:55.473Z,13.14
2018-07-16T15:48:23.777Z,14.31
2018-07-16T15:50:52.024Z,13.21
2018-07-16T15:53:20.274Z,15.14
2018-07-16T15:55:48.580Z,15.43
2018-07-16T15:58:16.931Z,17.68
2018-07-16T16:00:45.245Z,15.48
2018-07-16T16:03:13.530Z,15.60
2018-07-16T16:05:41.971Z,15.08
2018-07-16T16:08:10.269Z,14.18
2018-07-16T16:10:38.622Z,13.94
2018-07-16T16:13:07.008Z,13.30
2018-07-16T16:15:35.236Z,13.03
2018-07-16T16:18:05.156Z,14.25
2018-07-16T16:20:33.593Z,13.44
2018-07-16T16:23:01.932Z,13.66
2018-07-16T16:25:30.205Z,14.76
2018-07-16T16:27:58.508Z,15.37
2018-07-16T16:30:26.849Z,15.70
2018-07-16T16:32:55.127Z,15.60
2018-07-16T16:35:24.485Z,14.87
2018-07-16T16:37:52.817Z,14.83
2018-07-16T16:40:21.133Z,15.06
2018-07-16T16:42:49.461Z,14.49
2018-07-16T16:45:18.793Z,14.45
2018-07-16T16:47:47.081Z,16.10
2018-07-16T16:50:15.469Z,15.13
2018-07-16T16:52:43.797Z,14.87
2018-07-16T16:55:12.057Z,14.12
2018-07-16T16:57:41.216Z,14.34
2018-07-16T17:00:09.595Z,14.27
2018-07-16T17:02:37.789Z,14.25
2018-07-16T17:05:06.079Z,14.18
2018-07-16T17:07:34.498Z,15.43
2018-07-16T17:10:02.817Z,14.77
2018-07-16T17:12:31.085Z,14.90
2018-07-16T17:14:59.381Z,15.50
2018-07-16T17:17:27.653Z,15.55
2018-07-16T17:19:55.978Z,15.68
2018-07-16T17:22:24.242Z,15.24
2018-07-16T17:24:52.572Z,16.64
2018-07-16T17:27:20.829Z,17.26
2018-07-16T17:29:49.204Z,19.06
2018-07-16T17:32:17.497Z,22.86
2018-07-16T17:34:45.853Z,20.94
2018-07-16T17:37:14.331Z,19.78
2018-07-16T17:39:42.616Z,20.63
2018-07-16T17:42:10.882Z,25.94
2018-07-16T17:44:39.168Z,29.35
2018-07-16T17:47:07.500Z,32.54
2018-07-16T17:49:36.164Z,33.70
2018-07-16T17:52:04.403Z,35.66
2018-07-16T17:54:32.705Z,36.38
2018-07-16T17:57:01.002Z,37.11
2018-07-16T17:59:29.269Z,38.35
2018-07-16T18:01:57.625Z,39.42
2018-07-16T18:04:26.058Z,39.72
2018-07-16T18:06:54.357Z,39.64
2018-07-16T18:09:23.245Z,40.59
2018-07-16T18:11:51.568Z,40.83
2018-07-16T18:14:19.833Z,42.43
2018-07-16T18:16:48.120Z,42.31
2018-07-16T18:19:16.384Z,42.28
2018-07-16T18:21:44.733Z,42.48
2018-07-16T18:24:13.010Z,42.35
2018-07-16T18:26:41.289Z,42.82
2018-07-16T18:29:09.541Z,42.67
2018-07-16T18:31:37.852Z,43.34
2018-07-16T18:34:06.707Z,42.83
2018-07-16T18:37:38.125Z,42.48
2018-07-16T18:40:06.413Z,43.17
2018-07-16T18:42:34.754Z,42.74
2018-07-16T18:45:03.033Z,43.36
2018-07-16T18:47:31.390Z,43.52
2018-07-16T18:49:59.665Z,43.33
2018-07-16T18:52:27.984Z,43.69
2018-07-16T18:54:56.273Z,43.82
2018-07-16T18:57:24.561Z,44.45
2018-07-16T18:59:52.833Z,44.04
2018-07-16T19:02:21.132Z,44.49
2018-07-16T19:04:49.400Z,44.32
2018-07-16T19:07:21.849Z,44.92
2018-07-16T19:09:50.889Z,45.70
2018-07-16T19:12:19.781Z,45.30
2018-07-16T19:14:48.165Z,45.12
2018-07-16T19:17:16.465Z,45.49
2018-07-16T19:19:44.794Z,46.21
2018-07-16T19:22:13.105Z,46.73
2018-07-16T19:24:41.425Z,46.35
2018-07-16T19:27:09.720Z,46.25
2018-07-16T19:29:38.070Z,47.46
2018-07-16T19:32:06.371Z,46.46
2018-07-16T19:34:34.666Z,47.11
2018-07-16T19:37:03.198Z,47.79
2018-07-16T19:39:31.492Z,47.90
2018-07-16T19:41:59.753Z,47.70
2018-07-16T19:44:28.209Z,47.86
2018-07-16T19:46:56.469Z,48.32
2018-07-16T19:49:24.766Z,49.00
2018-07-16T19:51:53.117Z,49.27
2018-07-16T19:54:21.413Z,49.81
2018-07-16T19:56:49.676Z,50.13
2018-07-16T19:59:18.068Z,50.76
2018-07-16T20:01:46.353Z,50.70
2018-07-16T20:04:14.633Z,51.37
2018-07-16T20:06:43.920Z,51.71
2018-07-16T20:09:12.229Z,51.50
2018-07-16T20:11:40.522Z,51.89
2018-07-16T20:14:08.818Z,51.78
2018-07-16T20:16:42.287Z,52.39
2018-07-16T20:19:10.950Z,52.16
2018-07-16T20:21:39.281Z,52.85
2018-07-16T20:24:07.674Z,52.92
2018-07-16T20:26:35.960Z,53.83
2018-07-16T20:29:04.249Z,52.23
2018-07-16T20:31:32.590Z,53.57
2018-07-16T20:34:00.869Z,54.86
2018-07-16T20:36:29.161Z,55.78
2018-07-16T20:38:58.698Z,56.04
2018-07-16T20:41:26.985Z,56.86
2018-07-16T20:43:56.417Z,57.28
2018-07-16T20:46:24.889Z,57.04
2018-07-16T20:48:53.204Z,56.80
2018-07-16T20:51:21.594Z,56.29
2018-07-16T20:53:50.082Z,55.52
2018-07-16T20:56:18.395Z,55.03
2018-07-16T20:58:46.657Z,55.64
2018-07-16T21:01:14.962Z,55.69
2018-07-16T21:03:43.271Z,55.75
2018-07-16T21:06:11.561Z,55.85
2018-07-16T21:08:39.888Z,56.79
2018-07-16T21:11:08.230Z,56.60
2018-07-16T21:13:36.517Z,57.13
2018-07-16T21:16:04.816Z,57.04
2018-07-16T21:18:33.111Z,57.49
2018-07-16T21:21:01.381Z,57.53
2018-07-16T21:23:29.676Z,57.88
2018-07-16T21:25:57.957Z,58.04
2018-07-16T21:28:26.262Z,58.03
2018-07-16T21:30:54.670Z,58.23
2018-07-16T21:33:22.977Z,58.21
2018-07-16T21:35:51.237Z,59.10
2018-07-16T21:38:19.520Z,58.95
2018-07-16T21:40:47.868Z,58.74
2018-07-16T21:44:19.441Z,59.82
2018-07-16T21:46:47.707Z,59.97
2018-07-16T21:49:16.012Z,60.73
2018-07-16T21:51:44.282Z,61.24
2018-07-16T21:54:12.597Z,61.59
2018-07-16T21:56:40.885Z,61.57
2018-07-16T21:59:09.223Z,61.49
2018-07-16T22:01:37.559Z,61.89
2018-07-16T22:04:05.877Z,62.71
2018-07-16T22:06:34.162Z,63.15
2018-07-16T22:09:02.489Z,62.81
2018-07-16T22:11:30.809Z,62.98
2018-07-16T22:13:59.590Z,63.19
2018-07-16T22:16:27.861Z,63.61
2018-07-16T22:18:56.166Z,62.71
2018-07-16T22:21:25.485Z,62.90
2018-07-16T22:23:53.774Z,62.39
2018-07-16T22:26:22.106Z,62.30
2018-07-16T22:28:50.365Z,62.87
2018-07-16T22:31:21.674Z,63.53
2018-07-16T22:33:50.024Z,63.03
2018-07-16T22:36:18.509Z,63.36
2018-07-16T22:38:46.986Z,63.40
2018-07-16T22:41:15.495Z,63.36
2018-07-16T22:43:43.803Z,63.25
2018-07-16T22:46:12.095Z,63.66
2018-07-16T22:48:40.522Z,63.26
2018-07-16T22:51:10.145Z,63.81
2018-07-16T22:53:38.420Z,63.47
2018-07-16T22:56:06.754Z,63.48
2018-07-16T22:58:36.092Z,64.12
2018-07-16T23:01:05.500Z,64.37
2018-07-16T23:03:33.781Z,65.37
2018-07-16T23:06:02.102Z,65.67
2018-07-16T23:08:30.385Z,65.49
2018-07-16T23:11:02.360Z,65.55
2018-07-16T23:13:30.774Z,66.02
2018-07-16T23:15:59.037Z,65.50
2018-07-16T23:18:27.386Z,65.06
2018-07-16T23:20:55.784Z,65.36
2018-07-16T23:23:24.088Z,65.72
2018-07-16T23:25:52.537Z,66.37
2018-07-16T23:28:21.876Z,65.88
2018-07-16T23:30:50.163Z,66.29
2018-07-16T23:33:18.490Z,66.55
2018-07-16T23:35:46.860Z,66.41
2018-07-16T23:38:15.185Z,66.02
2018-07-16T23:40:43.609Z,66.42
2018-07-16T23:43:11.909Z,66.30
2018-07-16T23:45:40.191Z,66.86
2018-07-16T23:48:08.501Z,67.04
2018-07-16T23:50:36.777Z,66.68
2018-07-16T23:53:05.096Z,67.32
2018-07-16T23:55:33.368Z,67.06
2018-07-16T23:58:01.798Z,66.96
